Terminal Aerodrome Forecast
Issued by NWS

Home | Current Version | Previous Version | Text Only | Print | Product List | Glossary On
Versions: 1 2 3 4 5 6 7 8 9 10 11 12 13 14 15 16 17 18 19 20 21
000
FTUS46 KSEW 241100
TAFHQM
TAF
KHQM 241120Z 2412/2512 30004KT P6SM VCFG OVC012
      TEMPO 2412/2416 4SM BR OVC007
     FM241700 25008KT P6SM OVC015
     FM250400 26005KT P6SM OVC007=

USA.gov is the U.S. government's official web portal to all federal, state and local government web resources and services.